sensor_id;sensor_type;location;lat;lon;timestamp;pressure;altitude;pressure_sealevel;temperature
15845;BMP180;50807;52.436;13.346;2023-04-25T00:00:11;100111.00;;;13.70
15845;BMP180;50807;52.436;13.346;2023-04-25T00:00:42;100121.00;;;13.70
15845;BMP180;50807;52.436;13.346;2023-04-25T00:01:13;100120.00;;;13.70
15845;BMP180;50807;52.436;13.346;2023-04-25T00:01:45;100119.00;;;13.70
15845;BMP180;50807;52.436;13.346;2023-04-25T00:02:16;100116.00;;;13.70
15845;BMP180;50807;52.436;13.346;2023-04-25T00:02:46;100111.00;;;13.70
15845;BMP180;50807;52.436;13.346;2023-04-25T00:03:19;100115.00;;;13.70
15845;BMP180;50807;52.436;13.346;2023-04-25T00:03:51;100118.00;;;13.70
15845;BMP180;50807;52.436;13.346;2023-04-25T00:04:22;100116.00;;;13.70
15845;BMP180;50807;52.436;13.346;2023-04-25T00:04:53;100115.00;;;13.70
15845;BMP180;50807;52.436;13.346;2023-04-25T00:05:28;100124.00;;;13.60
15845;BMP180;50807;52.436;13.346;2023-04-25T00:06:00;100120.00;;;13.60
15845;BMP180;50807;52.436;13.346;2023-04-25T00:06:33;100104.00;;;13.60
15845;BMP180;50807;52.436;13.346;2023-04-25T00:07:06;100117.00;;;13.60
15845;BMP180;50807;52.436;13.346;2023-04-25T00:07:37;100119.00;;;13.60
15845;BMP180;50807;52.436;13.346;2023-04-25T00:08:09;100117.00;;;13.60
15845;BMP180;50807;52.436;13.346;2023-04-25T00:08:40;100124.00;;;13.60
15845;BMP180;50807;52.436;13.346;2023-04-25T00:09:11;100117.00;;;13.60
15845;BMP180;50807;52.436;13.346;2023-04-25T00:09:42;100115.00;;;13.60
15845;BMP180;50807;52.436;13.346;2023-04-25T00:10:13;100120.00;;;13.60
15845;BMP180;50807;52.436;13.346;2023-04-25T00:10:44;100117.00;;;13.60
15845;BMP180;50807;52.436;13.346;2023-04-25T00:11:16;100115.00;;;13.60
15845;BMP180;50807;52.436;13.346;2023-04-25T00:11:46;100118.00;;;13.50
15845;BMP180;50807;52.436;13.346;2023-04-25T00:12:17;100110.00;;;13.60
15845;BMP180;50807;52.436;13.346;2023-04-25T00:12:50;100108.00;;;13.50
15845;BMP180;50807;52.436;13.346;2023-04-25T00:13:22;100110.00;;;13.60
15845;BMP180;50807;52.436;13.346;2023-04-25T00:13:52;100105.00;;;13.60
15845;BMP180;50807;52.436;13.346;2023-04-25T00:14:24;100107.00;;;13.60
15845;BMP180;50807;52.436;13.346;2023-04-25T00:14:55;100116.00;;;13.60
15845;BMP180;50807;52.436;13.346;2023-04-25T00:15:27;100112.00;;;13.50
15845;BMP180;50807;52.436;13.346;2023-04-25T00:16:00;100120.00;;;13.50
15845;BMP180;50807;52.436;13.346;2023-04-25T00:16:32;100108.00;;;13.50
15845;BMP180;50807;52.436;13.346;2023-04-25T00:17:05;100110.00;;;13.50
15845;BMP180;50807;52.436;13.346;2023-04-25T00:17:36;100109.00;;;13.50
15845;BMP180;50807;52.436;13.346;2023-04-25T00:18:08;100115.00;;;13.50
15845;BMP180;50807;52.436;13.346;2023-04-25T00:18:39;100117.00;;;13.50
15845;BMP180;50807;52.436;13.346;2023-04-25T00:19:10;100108.00;;;13.50
15845;BMP180;50807;52.436;13.346;2023-04-25T00:19:41;100117.00;;;13.50
15845;BMP180;50807;52.436;13.346;2023-04-25T00:20:12;100116.00;;;13.50
15845;BMP180;50807;52.436;13.346;2023-04-25T00:20:43;100106.00;;;13.50
15845;BMP180;50807;52.436;13.346;2023-04-25T00:21:17;100110.00;;;13.50
15845;BMP180;50807;52.436;13.346;2023-04-25T00:21:48;100112.00;;;13.50
15845;BMP180;50807;52.436;13.346;2023-04-25T00:22:20;100111.00;;;13.50
15845;BMP180;50807;52.436;13.346;2023-04-25T00:22:52;100112.00;;;13.50
15845;BMP180;50807;52.436;13.346;2023-04-25T00:23:23;100118.00;;;13.50
15845;BMP180;50807;52.436;13.346;2023-04-25T00:23:55;100113.00;;;13.40
15845;BMP180;50807;52.436;13.346;2023-04-25T00:24:27;100116.00;;;13.50
15845;BMP180;50807;52.436;13.346;2023-04-25T00:24:57;100116.00;;;13.50
15845;BMP180;50807;52.436;13.346;2023-04-25T00:25:30;100114.00;;;13.50
15845;BMP180;50807;52.436;13.346;2023-04-25T00:26:02;100110.00;;;13.50
15845;BMP180;50807;52.436;13.346;2023-04-25T00:26:34;100110.00;;;13.50
15845;BMP180;50807;52.436;13.346;2023-04-25T00:27:05;100112.00;;;13.50
15845;BMP180;50807;52.436;13.346;2023-04-25T00:27:36;100123.00;;;13.50
15845;BMP180;50807;52.436;13.346;2023-04-25T00:28:10;100118.00;;;13.50
15845;BMP180;50807;52.436;13.346;2023-04-25T00:28:41;100112.00;;;13.50
15845;BMP180;50807;52.436;13.346;2023-04-25T00:29:12;100113.00;;;13.50
15845;BMP180;50807;52.436;13.346;2023-04-25T00:29:44;100115.00;;;13.50
15845;BMP180;50807;52.436;13.346;2023-04-25T00:30:15;100115.00;;;13.50
15845;BMP180;50807;52.436;13.346;2023-04-25T00:30:46;100127.00;;;13.50
15845;BMP180;50807;52.436;13.346;2023-04-25T00:31:17;100112.00;;;13.50
15845;BMP180;50807;52.436;13.346;2023-04-25T00:31:48;100118.00;;;13.50
15845;BMP180;50807;52.436;13.346;2023-04-25T00:32:19;100121.00;;;13.50
15845;BMP180;50807;52.436;13.346;2023-04-25T00:32:50;100115.00;;;13.50
15845;BMP180;50807;52.436;13.346;2023-04-25T00:33:21;100114.00;;;13.50
15845;BMP180;50807;52.436;13.346;2023-04-25T00:33:52;100120.00;;;13.50
15845;BMP180;50807;52.436;13.346;2023-04-25T00:34:24;100115.00;;;13.50
15845;BMP180;50807;52.436;13.346;2023-04-25T00:34:55;100115.00;;;13.50
15845;BMP180;50807;52.436;13.346;2023-04-25T00:35:26;100116.00;;;13.50
15845;BMP180;50807;52.436;13.346;2023-04-25T00:35:58;100113.00;;;13.50
15845;BMP180;50807;52.436;13.346;2023-04-25T00:36:29;100106.00;;;13.50
15845;BMP180;50807;52.436;13.346;2023-04-25T00:37:00;100113.00;;;13.50
15845;BMP180;50807;52.436;13.346;2023-04-25T00:37:33;100121.00;;;13.50
15845;BMP180;50807;52.436;13.346;2023-04-25T00:38:03;100112.00;;;13.50
15845;BMP180;50807;52.436;13.346;2023-04-25T00:38:34;100112.00;;;13.50
15845;BMP180;50807;52.436;13.346;2023-04-25T00:39:06;100117.00;;;13.50
15845;BMP180;50807;52.436;13.346;2023-04-25T00:39:37;100104.00;;;13.50
15845;BMP180;50807;52.436;13.346;2023-04-25T00:40:09;100111.00;;;13.60
15845;BMP180;50807;52.436;13.346;2023-04-25T00:40:41;100106.00;;;13.50
15845;BMP180;50807;52.436;13.346;2023-04-25T00:41:14;100121.00;;;13.60
15845;BMP180;50807;52.436;13.346;2023-04-25T00:41:45;100116.00;;;13.60
15845;BMP180;50807;52.436;13.346;2023-04-25T00:42:17;100115.00;;;13.60
15845;BMP180;50807;52.436;13.346;2023-04-25T00:42:49;100119.00;;;13.60
15845;BMP180;50807;52.436;13.346;2023-04-25T00:43:21;100122.00;;;13.60
15845;BMP180;50807;52.436;13.346;2023-04-25T00:43:54;100106.00;;;13.60
15845;BMP180;50807;52.436;13.346;2023-04-25T00:44:27;100109.00;;;13.60
15845;BMP180;50807;52.436;13.346;2023-04-25T00:45:00;100113.00;;;13.60
15845;BMP180;50807;52.436;13.346;2023-04-25T00:45:38;100112.00;;;13.50
15845;BMP180;50807;52.436;13.346;2023-04-25T00:46:09;100110.00;;;13.50
15845;BMP180;50807;52.436;13.346;2023-04-25T00:46:40;100115.00;;;13.60
15845;BMP180;50807;52.436;13.346;2023-04-25T00:47:12;100113.00;;;13.50
15845;BMP180;50807;52.436;13.346;2023-04-25T00:47:44;100102.00;;;13.60
15845;BMP180;50807;52.436;13.346;2023-04-25T00:48:15;100107.00;;;13.60
15845;BMP180;50807;52.436;13.346;2023-04-25T00:48:46;100111.00;;;13.60
15845;BMP180;50807;52.436;13.346;2023-04-25T00:49:17;100107.00;;;13.60
15845;BMP180;50807;52.436;13.346;2023-04-25T00:49:48;100127.00;;;13.60
15845;BMP180;50807;52.436;13.346;2023-04-25T00:50:19;100117.00;;;13.60
15845;BMP180;50807;52.436;13.346;2023-04-25T00:50:53;100107.00;;;13.50
15845;BMP180;50807;52.436;13.346;2023-04-25T00:51:25;100101.00;;;13.50
15845;BMP180;50807;52.436;13.346;2023-04-25T00:51:57;100102.00;;;13.50
15845;BMP180;50807;52.436;13.346;2023-04-25T00:52:29;100114.00;;;13.50
15845;BMP180;50807;52.436;13.346;2023-04-25T00:53:00;100110.00;;;13.50
15845;BMP180;50807;52.436;13.346;2023-04-25T00:53:32;100110.00;;;13.50
15845;BMP180;50807;52.436;13.346;2023-04-25T00:54:04;100094.00;;;13.50
15845;BMP180;50807;52.436;13.346;2023-04-25T00:54:35;100107.00;;;13.50
15845;BMP180;50807;52.436;13.346;2023-04-25T00:55:07;100099.00;;;13.50
15845;BMP180;50807;52.436;13.346;2023-04-25T00:55:39;100103.00;;;13.50
15845;BMP180;50807;52.436;13.346;2023-04-25T00:56:10;100111.00;;;13.50
15845;BMP180;50807;52.436;13.346;2023-04-25T00:56:41;100116.00;;;13.50
15845;BMP180;50807;52.436;13.346;2023-04-25T00:57:13;100114.00;;;13.60
15845;BMP180;50807;52.436;13.346;2023-04-25T00:57:44;100121.00;;;13.60
15845;BMP180;50807;52.436;13.346;2023-04-25T00:58:15;100105.00;;;13.60
15845;BMP180;50807;52.436;13.346;2023-04-25T00:58:49;100098.00;;;13.60
15845;BMP180;50807;52.436;13.346;2023-04-25T00:59:20;100107.00;;;13.60
15845;BMP180;50807;52.436;13.346;2023-04-25T00:59:52;100104.00;;;13.60
15845;BMP180;50807;52.436;13.346;2023-04-25T01:00:24;100108.00;;;13.60
15845;BMP180;50807;52.436;13.346;2023-04-25T01:00:57;100112.00;;;13.60
15845;BMP180;50807;52.436;13.346;2023-04-25T01:01:28;100110.00;;;13.60
15845;BMP180;50807;52.436;13.346;2023-04-25T01:02:00;100101.00;;;13.60
15845;BMP180;50807;52.436;13.346;2023-04-25T01:02:32;100110.00;;;13.60
15845;BMP180;50807;52.436;13.346;2023-04-25T01:03:03;100093.00;;;13.60
15845;BMP180;50807;52.436;13.346;2023-04-25T01:03:39;100109.00;;;13.60
15845;BMP180;50807;52.436;13.346;2023-04-25T01:04:11;100099.00;;;13.60
15845;BMP180;50807;52.436;13.346;2023-04-25T01:04:42;100106.00;;;13.60
15845;BMP180;50807;52.436;13.346;2023-04-25T01:05:13;100105.00;;;13.60
15845;BMP180;50807;52.436;13.346;2023-04-25T01:05:44;100104.00;;;13.60
15845;BMP180;50807;52.436;13.346;2023-04-25T01:06:17;100099.00;;;13.60
15845;BMP180;50807;52.436;13.346;2023-04-25T01:06:49;100093.00;;;13.60
15845;BMP180;50807;52.436;13.346;2023-04-25T01:07:20;100103.00;;;13.60
15845;BMP180;50807;52.436;13.346;2023-04-25T01:07:51;100097.00;;;13.60
15845;BMP180;50807;52.436;13.346;2023-04-25T01:08:24;100096.00;;;13.60
15845;BMP180;50807;52.436;13.346;2023-04-25T01:08:56;100100.00;;;13.60
15845;BMP180;50807;52.436;13.346;2023-04-25T01:09:27;100092.00;;;13.60
15845;BMP180;50807;52.436;13.346;2023-04-25T01:09:59;100091.00;;;13.60
15845;BMP180;50807;52.436;13.346;2023-04-25T01:10:30;100104.00;;;13.60
15845;BMP180;50807;52.436;13.346;2023-04-25T01:11:01;100092.00;;;13.60
15845;BMP180;50807;52.436;13.346;2023-04-25T01:11:33;100088.00;;;13.60
15845;BMP180;50807;52.436;13.346;2023-04-25T01:12:04;100091.00;;;13.70
15845;BMP180;50807;52.436;13.346;2023-04-25T01:12:35;100096.00;;;13.70
15845;BMP180;50807;52.436;13.346;2023-04-25T01:13:07;100103.00;;;13.70
15845;BMP180;50807;52.436;13.346;2023-04-25T01:13:38;100090.00;;;13.70
15845;BMP180;50807;52.436;13.346;2023-04-25T01:14:10;100084.00;;;13.70
15845;BMP180;50807;52.436;13.346;2023-04-25T01:14:42;100083.00;;;13.70
15845;BMP180;50807;52.436;13.346;2023-04-25T01:15:13;100093.00;;;13.70
15845;BMP180;50807;52.436;13.346;2023-04-25T01:15:44;100088.00;;;13.70
15845;BMP180;50807;52.436;13.346;2023-04-25T01:16:15;100084.00;;;13.70
15845;BMP180;50807;52.436;13.346;2023-04-25T01:16:46;100088.00;;;13.70
15845;BMP180;50807;52.436;13.346;2023-04-25T01:17:18;100087.00;;;13.70
15845;BMP180;50807;52.436;13.346;2023-04-25T01:17:50;100080.00;;;13.70
15845;BMP180;50807;52.436;13.346;2023-04-25T01:18:21;100085.00;;;13.70
15845;BMP180;50807;52.436;13.346;2023-04-25T01:18:52;100078.00;;;13.70
15845;BMP180;50807;52.436;13.346;2023-04-25T01:19:24;100088.00;;;13.70
15845;BMP180;50807;52.436;13.346;2023-04-25T01:19:54;100076.00;;;13.70
15845;BMP180;50807;52.436;13.346;2023-04-25T01:20:26;100074.00;;;13.70
15845;BMP180;50807;52.436;13.346;2023-04-25T01:21:07;100082.00;;;13.60
15845;BMP180;50807;52.436;13.346;2023-04-25T01:21:39;100084.00;;;13.70
15845;BMP180;50807;52.436;13.346;2023-04-25T01:22:11;100080.00;;;13.70
15845;BMP180;50807;52.436;13.346;2023-04-25T01:22:42;100086.00;;;13.70
15845;BMP180;50807;52.436;13.346;2023-04-25T01:23:14;100085.00;;;13.70
15845;BMP180;50807;52.436;13.346;2023-04-25T01:23:46;100087.00;;;13.70
15845;BMP180;50807;52.436;13.346;2023-04-25T01:24:17;100085.00;;;13.80
15845;BMP180;50807;52.436;13.346;2023-04-25T01:24:49;100080.00;;;13.70
15845;BMP180;50807;52.436;13.346;2023-04-25T01:25:21;100075.00;;;13.70
15845;BMP180;50807;52.436;13.346;2023-04-25T01:25:53;100078.00;;;13.70
15845;BMP180;50807;52.436;13.346;2023-04-25T01:26:24;100088.00;;;13.70
15845;BMP180;50807;52.436;13.346;2023-04-25T01:26:57;100083.00;;;13.70
15845;BMP180;50807;52.436;13.346;2023-04-25T01:27:29;100079.00;;;13.70
15845;BMP180;50807;52.436;13.346;2023-04-25T01:28:01;100084.00;;;13.70
15845;BMP180;50807;52.436;13.346;2023-04-25T01:28:33;100079.00;;;13.70
15845;BMP180;50807;52.436;13.346;2023-04-25T01:29:05;100078.00;;;13.70
15845;BMP180;50807;52.436;13.346;2023-04-25T01:29:36;100081.00;;;13.70
15845;BMP180;50807;52.436;13.346;2023-04-25T01:30:09;100085.00;;;13.70
15845;BMP180;50807;52.436;13.346;2023-04-25T01:30:41;100085.00;;;13.70
15845;BMP180;50807;52.436;13.346;2023-04-25T01:31:12;100079.00;;;13.70
15845;BMP180;50807;52.436;13.346;2023-04-25T01:31:45;100090.00;;;13.70
15845;BMP180;50807;52.436;13.346;2023-04-25T01:32:16;100080.00;;;13.70
15845;BMP180;50807;52.436;13.346;2023-04-25T01:32:49;100066.00;;;13.70
15845;BMP180;50807;52.436;13.346;2023-04-25T01:33:21;100091.00;;;13.70
15845;BMP180;50807;52.436;13.346;2023-04-25T01:33:53;100086.00;;;13.70
15845;BMP180;50807;52.436;13.346;2023-04-25T01:34:24;100083.00;;;13.70
15845;BMP180;50807;52.436;13.346;2023-04-25T01:34:55;100082.00;;;13.70
15845;BMP180;50807;52.436;13.346;2023-04-25T01:35:27;100086.00;;;13.70
15845;BMP180;50807;52.436;13.346;2023-04-25T01:35:58;100093.00;;;13.70
15845;BMP180;50807;52.436;13.346;2023-04-25T01:36:30;100081.00;;;13.70
15845;BMP180;50807;52.436;13.346;2023-04-25T01:37:02;100084.00;;;13.70
15845;BMP180;50807;52.436;13.346;2023-04-25T01:37:33;100075.00;;;13.70
15845;BMP180;50807;52.436;13.346;2023-04-25T01:38:04;100088.00;;;13.70
15845;BMP180;50807;52.436;13.346;2023-04-25T01:38:35;100091.00;;;13.70
15845;BMP180;50807;52.436;13.346;2023-04-25T01:39:07;100082.00;;;13.70
15845;BMP180;50807;52.436;13.346;2023-04-25T01:39:38;100098.00;;;13.70
15845;BMP180;50807;52.436;13.346;2023-04-25T01:40:11;100096.00;;;13.70
15845;BMP180;50807;52.436;13.346;2023-04-25T01:40:45;100083.00;;;13.60
15845;BMP180;50807;52.436;13.346;2023-04-25T01:41:16;100077.00;;;13.70
15845;BMP180;50807;52.436;13.346;2023-04-25T01:41:48;100095.00;;;13.60
15845;BMP180;50807;52.436;13.346;2023-04-25T01:42:20;100086.00;;;13.60
15845;BMP180;50807;52.436;13.346;2023-04-25T01:42:52;100062.00;;;13.60
15845;BMP180;50807;52.436;13.346;2023-04-25T01:43:23;100093.00;;;13.60
15845;BMP180;50807;52.436;13.346;2023-04-25T01:43:55;100095.00;;;13.50
15845;BMP180;50807;52.436;13.346;2023-04-25T01:44:26;100096.00;;;13.50
15845;BMP180;50807;52.436;13.346;2023-04-25T01:44:57;100095.00;;;13.50
15845;BMP180;50807;52.436;13.346;2023-04-25T01:45:29;100096.00;;;13.50
15845;BMP180;50807;52.436;13.346;2023-04-25T01:46:00;100096.00;;;13.50
15845;BMP180;50807;52.436;13.346;2023-04-25T01:46:33;100092.00;;;13.50
15845;BMP180;50807;52.436;13.346;2023-04-25T01:47:05;100100.00;;;13.50
15845;BMP180;50807;52.436;13.346;2023-04-25T01:47:36;100101.00;;;13.50
15845;BMP180;50807;52.436;13.346;2023-04-25T01:48:07;100091.00;;;13.50
15845;BMP180;50807;52.436;13.346;2023-04-25T01:48:38;100091.00;;;13.50
15845;BMP180;50807;52.436;13.346;2023-04-25T01:49:10;100112.00;;;13.40
15845;BMP180;50807;52.436;13.346;2023-04-25T01:49:41;100102.00;;;13.40
15845;BMP180;50807;52.436;13.346;2023-04-25T01:50:12;100089.00;;;13.40
15845;BMP180;50807;52.436;13.346;2023-04-25T01:50:44;100082.00;;;13.40
15845;BMP180;50807;52.436;13.346;2023-04-25T01:51:16;100089.00;;;13.40
15845;BMP180;50807;52.436;13.346;2023-04-25T01:51:48;100090.00;;;13.40
15845;BMP180;50807;52.436;13.346;2023-04-25T01:52:19;100088.00;;;13.40
15845;BMP180;50807;52.436;13.346;2023-04-25T01:52:50;100085.00;;;13.40
15845;BMP180;50807;52.436;13.346;2023-04-25T01:53:21;100087.00;;;13.40
15845;BMP180;50807;52.436;13.346;2023-04-25T01:53:54;100081.00;;;13.40
15845;BMP180;50807;52.436;13.346;2023-04-25T01:54:26;100082.00;;;13.40
15845;BMP180;50807;52.436;13.346;2023-04-25T01:54:59;100090.00;;;13.40
15845;BMP180;50807;52.436;13.346;2023-04-25T01:55:30;100086.00;;;13.40
15845;BMP180;50807;52.436;13.346;2023-04-25T01:56:03;100083.00;;;13.40
15845;BMP180;50807;52.436;13.346;2023-04-25T01:56:37;100090.00;;;13.30
15845;BMP180;50807;52.436;13.346;2023-04-25T01:57:08;100095.00;;;13.40
15845;BMP180;50807;52.436;13.346;2023-04-25T01:57:40;100086.00;;;13.40
15845;BMP180;50807;52.436;13.346;2023-04-25T01:58:10;100089.00;;;13.40
15845;BMP180;50807;52.436;13.346;2023-04-25T01:58:43;100089.00;;;13.40
15845;BMP180;50807;52.436;13.346;2023-04-25T01:59:15;100087.00;;;13.40
15845;BMP180;50807;52.436;13.346;2023-04-25T01:59:46;100080.00;;;13.40
15845;BMP180;50807;52.436;13.346;2023-04-25T02:00:17;100080.00;;;13.40
15845;BMP180;50807;52.436;13.346;2023-04-25T02:00:49;100086.00;;;13.40
15845;BMP180;50807;52.436;13.346;2023-04-25T02:01:20;100086.00;;;13.40
15845;BMP180;50807;52.436;13.346;2023-04-25T02:01:51;100087.00;;;13.50
15845;BMP180;50807;52.436;13.346;2023-04-25T02:02:22;100086.00;;;13.50
15845;BMP180;50807;52.436;13.346;2023-04-25T02:02:53;100091.00;;;13.40
15845;BMP180;50807;52.436;13.346;2023-04-25T02:03:24;100086.00;;;13.50
15845;BMP180;50807;52.436;13.346;2023-04-25T02:03:56;100083.00;;;13.50
15845;BMP180;50807;52.436;13.346;2023-04-25T02:04:27;100095.00;;;13.50
15845;BMP180;50807;52.436;13.346;2023-04-25T02:04:57;100091.00;;;13.50
15845;BMP180;50807;52.436;13.346;2023-04-25T02:05:34;100089.00;;;13.40
15845;BMP180;50807;52.436;13.346;2023-04-25T02:06:06;100083.00;;;13.50
15845;BMP180;50807;52.436;13.346;2023-04-25T02:06:37;100087.00;;;13.50
15845;BMP180;50807;52.436;13.346;2023-04-25T02:07:10;100088.00;;;13.40
15845;BMP180;50807;52.436;13.346;2023-04-25T02:07:40;100086.00;;;13.50
15845;BMP180;50807;52.436;13.346;2023-04-25T02:08:11;100086.00;;;13.50
15845;BMP180;50807;52.436;13.346;2023-04-25T02:08:43;100089.00;;;13.50
15845;BMP180;50807;52.436;13.346;2023-04-25T02:09:13;100083.00;;;13.40
15845;BMP180;50807;52.436;13.346;2023-04-25T02:09:44;100087.00;;;13.40
15845;BMP180;50807;52.436;13.346;2023-04-25T02:10:16;100089.00;;;13.40
15845;BMP180;50807;52.436;13.346;2023-04-25T02:10:47;100095.00;;;13.40
15845;BMP180;50807;52.436;13.346;2023-04-25T02:11:18;100090.00;;;13.40
15845;BMP180;50807;52.436;13.346;2023-04-25T02:11:49;100096.00;;;13.40
15845;BMP180;50807;52.436;13.346;2023-04-25T02:12:20;100085.00;;;13.50
15845;BMP180;50807;52.436;13.346;2023-04-25T02:12:51;100084.00;;;13.40
15845;BMP180;50807;52.436;13.346;2023-04-25T02:13:23;100087.00;;;13.40
15845;BMP180;50807;52.436;13.346;2023-04-25T02:13:54;100092.00;;;13.50
15845;BMP180;50807;52.436;13.346;2023-04-25T02:14:24;100095.00;;;13.40
15845;BMP180;50807;52.436;13.346;2023-04-25T02:14:56;100086.00;;;13.50
15845;BMP180;50807;52.436;13.346;2023-04-25T02:15:27;100093.00;;;13.50
15845;BMP180;50807;52.436;13.346;2023-04-25T02:15:58;100091.00;;;13.50
15845;BMP180;50807;52.436;13.346;2023-04-25T02:16:30;100094.00;;;13.50
15845;BMP180;50807;52.436;13.346;2023-04-25T02:17:01;100092.00;;;13.50
15845;BMP180;50807;52.436;13.346;2023-04-25T02:17:32;100096.00;;;13.50
15845;BMP180;50807;52.436;13.346;2023-04-25T02:18:04;100085.00;;;13.50
15845;BMP180;50807;52.436;13.346;2023-04-25T02:18:36;100101.00;;;13.50
15845;BMP180;50807;52.436;13.346;2023-04-25T02:19:10;100082.00;;;13.40
15845;BMP180;50807;52.436;13.346;2023-04-25T02:19:42;100093.00;;;13.50
15845;BMP180;50807;52.436;13.346;2023-04-25T02:20:13;100091.00;;;13.50
15845;BMP180;50807;52.436;13.346;2023-04-25T02:20:46;100091.00;;;13.50
15845;BMP180;50807;52.436;13.346;2023-04-25T02:21:18;100092.00;;;13.50
15845;BMP180;50807;52.436;13.346;2023-04-25T02:21:49;100090.00;;;13.50
15845;BMP180;50807;52.436;13.346;2023-04-25T02:22:21;100096.00;;;13.50
15845;BMP180;50807;52.436;13.346;2023-04-25T02:22:53;100082.00;;;13.50
15845;BMP180;50807;52.436;13.346;2023-04-25T02:23:24;100092.00;;;13.50
15845;BMP180;50807;52.436;13.346;2023-04-25T02:23:55;100086.00;;;13.50
15845;BMP180;50807;52.436;13.346;2023-04-25T02:24:27;100087.00;;;13.50
15845;BMP180;50807;52.436;13.346;2023-04-25T02:24:58;100092.00;;;13.50
15845;BMP180;50807;52.436;13.346;2023-04-25T02:25:29;100093.00;;;13.50
15845;BMP180;50807;52.436;13.346;2023-04-25T02:26:01;100087.00;;;13.50
15845;BMP180;50807;52.436;13.346;2023-04-25T02:26:32;100102.00;;;13.50
15845;BMP180;50807;52.436;13.346;2023-04-25T02:27:03;100094.00;;;13.50
15845;BMP180;50807;52.436;13.346;2023-04-25T02:27:35;100095.00;;;13.50
15845;BMP180;50807;52.436;13.346;2023-04-25T02:28:07;100095.00;;;13.40
15845;BMP180;50807;52.436;13.346;2023-04-25T02:28:38;100091.00;;;13.50
15845;BMP180;50807;52.436;13.346;2023-04-25T02:29:09;100099.00;;;13.50
15845;BMP180;50807;52.436;13.346;2023-04-25T02:29:40;100089.00;;;13.50
15845;BMP180;50807;52.436;13.346;2023-04-25T02:30:12;100083.00;;;13.40
15845;BMP180;50807;52.436;13.346;2023-04-25T02:30:43;100086.00;;;13.40
15845;BMP180;50807;52.436;13.346;2023-04-25T02:31:14;100082.00;;;13.40
15845;BMP180;50807;52.436;13.346;2023-04-25T02:31:46;100090.00;;;13.40
15845;BMP180;50807;52.436;13.346;2023-04-25T02:32:16;100088.00;;;13.40
15845;BMP180;50807;52.436;13.346;2023-04-25T02:32:47;100086.00;;;13.40
15845;BMP180;50807;52.436;13.346;2023-04-25T02:33:19;100082.00;;;13.40
15845;BMP180;50807;52.436;13.346;2023-04-25T02:33:51;100079.00;;;13.40
15845;BMP180;50807;52.436;13.346;2023-04-25T02:34:22;100077.00;;;13.40
15845;BMP180;50807;52.436;13.346;2023-04-25T02:34:54;100088.00;;;13.40
15845;BMP180;50807;52.436;13.346;2023-04-25T02:35:25;100082.00;;;13.40
15845;BMP180;50807;52.436;13.346;2023-04-25T02:35:55;100084.00;;;13.40
15845;BMP180;50807;52.436;13.346;2023-04-25T02:36:27;100080.00;;;13.40
15845;BMP180;50807;52.436;13.346;2023-04-25T02:37:00;100089.00;;;13.40
15845;BMP180;50807;52.436;13.346;2023-04-25T02:37:34;100084.00;;;13.40
15845;BMP180;50807;52.436;13.346;2023-04-25T02:38:06;100088.00;;;13.40
15845;BMP180;50807;52.436;13.346;2023-04-25T02:38:37;100082.00;;;13.40
15845;BMP180;50807;52.436;13.346;2023-04-25T02:39:08;100082.00;;;13.40
15845;BMP180;50807;52.436;13.346;2023-04-25T02:39:40;100078.00;;;13.40
15845;BMP180;50807;52.436;13.346;2023-04-25T02:40:12;100104.00;;;13.40
15845;BMP180;50807;52.436;13.346;2023-04-25T02:40:43;100084.00;;;13.40
15845;BMP180;50807;52.436;13.346;2023-04-25T02:41:14;100092.00;;;13.40
15845;BMP180;50807;52.436;13.346;2023-04-25T02:41:45;100084.00;;;13.40
15845;BMP180;50807;52.436;13.346;2023-04-25T02:42:16;100083.00;;;13.40
15845;BMP180;50807;52.436;13.346;2023-04-25T02:42:48;100087.00;;;13.40
15845;BMP180;50807;52.436;13.346;2023-04-25T02:43:19;100081.00;;;13.40
15845;BMP180;50807;52.436;13.346;2023-04-25T02:43:51;100076.00;;;13.40
15845;BMP180;50807;52.436;13.346;2023-04-25T02:44:21;100084.00;;;13.40
15845;BMP180;50807;52.436;13.346;2023-04-25T02:44:52;100086.00;;;13.40
15845;BMP180;50807;52.436;13.346;2023-04-25T02:45:24;100088.00;;;13.40
15845;BMP180;50807;52.436;13.346;2023-04-25T02:45:55;100088.00;;;13.40
15845;BMP180;50807;52.436;13.346;2023-04-25T02:46:26;100087.00;;;13.40
15845;BMP180;50807;52.436;13.346;2023-04-25T02:46:58;100077.00;;;13.40
15845;BMP180;50807;52.436;13.346;2023-04-25T02:47:29;100078.00;;;13.40
15845;BMP180;50807;52.436;13.346;2023-04-25T02:47:59;100086.00;;;13.40
15845;BMP180;50807;52.436;13.346;2023-04-25T02:48:31;100074.00;;;13.40
15845;BMP180;50807;52.436;13.346;2023-04-25T02:49:02;100081.00;;;13.40
15845;BMP180;50807;52.436;13.346;2023-04-25T02:49:33;100084.00;;;13.40
15845;BMP180;50807;52.436;13.346;2023-04-25T02:50:06;100082.00;;;13.40
15845;BMP180;50807;52.436;13.346;2023-04-25T02:50:37;100084.00;;;13.40
15845;BMP180;50807;52.436;13.346;2023-04-25T02:51:11;100086.00;;;13.40
15845;BMP180;50807;52.436;13.346;2023-04-25T02:51:43;100087.00;;;13.30
15845;BMP180;50807;52.436;13.346;2023-04-25T02:52:14;100078.00;;;13.40
15845;BMP180;50807;52.436;13.346;2023-04-25T02:52:46;100082.00;;;13.30
15845;BMP180;50807;52.436;13.346;2023-04-25T02:53:18;100080.00;;;13.30
15845;BMP180;50807;52.436;13.346;2023-04-25T02:53:48;100086.00;;;13.30
15845;BMP180;50807;52.436;13.346;2023-04-25T02:54:19;100080.00;;;13.30
15845;BMP180;50807;52.436;13.346;2023-04-25T02:54:51;100085.00;;;13.30
15845;BMP180;50807;52.436;13.346;2023-04-25T02:55:22;100091.00;;;13.30
15845;BMP180;50807;52.436;13.346;2023-04-25T02:55:53;100083.00;;;13.30
15845;BMP180;50807;52.436;13.346;2023-04-25T02:56:25;100082.00;;;13.30
15845;BMP180;50807;52.436;13.346;2023-04-25T02:56:56;100079.00;;;13.30